createdAt,value
2023-05-01T00:02:21.682Z,234.50
2023-05-01T00:05:31.868Z,210.79
2023-05-01T00:08:37.782Z,247.07
2023-05-01T00:11:44.582Z,241.97
2023-05-01T00:14:50.483Z,253.92
2023-05-01T00:17:57.617Z,317.28
2023-05-01T00:21:06.686Z,323.99
2023-05-01T00:24:13.478Z,292.02
2023-05-01T00:27:19.646Z,274.71
2023-05-01T00:30:28.057Z,284.05
2023-05-01T00:33:34.052Z,284.00
2023-05-01T00:36:43.599Z,284.55
2023-05-01T00:39:49.594Z,286.94
2023-05-01T00:42:56.397Z,288.59
2023-05-01T00:46:02.596Z,287.99
2023-05-01T00:49:09.365Z,275.33
2023-05-01T00:52:18.090Z,270.51
2023-05-01T00:55:26.101Z,247.44
2023-05-01T00:58:33.046Z,253.54
2023-05-01T01:01:42.264Z,250.99
2023-05-01T01:04:50.324Z,244.54
2023-05-01T01:08:14.361Z,229.37
2023-05-01T01:11:37.281Z,228.61
2023-05-01T01:14:58.563Z,223.85
2023-05-01T01:18:19.696Z,223.21
2023-05-01T01:21:36.847Z,208.54
2023-05-01T01:25:36.645Z,198.88
2023-05-01T01:29:35.193Z,201.95
2023-05-01T01:33:28.187Z,176.49
2023-05-01T01:36:47.287Z,168.10
2023-05-01T01:40:05.674Z,168.30
2023-05-01T01:43:21.328Z,176.53
2023-05-01T01:46:30.036Z,174.30
2023-05-01T01:49:44.026Z,174.63
2023-05-01T01:52:56.648Z,172.10
2023-05-01T01:56:07.873Z,163.28
2023-05-01T01:59:17.005Z,167.92
2023-05-01T02:02:27.529Z,160.76
2023-05-01T02:05:37.688Z,155.06
2023-05-01T02:08:52.071Z,152.90
2023-05-01T02:12:01.831Z,150.05
2023-05-01T02:15:12.988Z,138.54
2023-05-01T02:18:21.016Z,128.40
2023-05-01T02:21:31.433Z,121.09
2023-05-01T02:24:43.424Z,116.60
2023-05-01T02:27:59.014Z,110.55
2023-05-01T02:31:05.576Z,104.68
2023-05-01T02:34:12.634Z,100.25
2023-05-01T02:37:19.591Z,98.22
2023-05-01T02:40:32.288Z,90.59
2023-05-01T02:43:41.941Z,87.56
2023-05-01T02:46:53.759Z,87.36
2023-05-01T02:50:03.480Z,84.24
2023-05-01T02:53:11.928Z,80.60
2023-05-01T02:56:33.226Z,76.92
2023-05-01T02:59:40.671Z,70.82
2023-05-01T03:02:47.660Z,70.65
2023-05-01T03:05:54.899Z,74.73
2023-05-01T03:09:00.840Z,73.38
2023-05-01T03:12:10.278Z,70.72
2023-05-01T03:15:16.690Z,69.85
2023-05-01T03:18:26.532Z,70.59
2023-05-01T03:21:33.248Z,70.74
2023-05-01T03:24:40.064Z,71.02
2023-05-01T03:27:49.114Z,65.37
2023-05-01T03:30:57.473Z,67.48
2023-05-01T03:34:03.665Z,64.50
2023-05-01T03:37:10.542Z,68.50
2023-05-01T03:40:17.246Z,64.89
2023-05-01T03:43:45.482Z,68.60
2023-05-01T03:47:11.805Z,70.59
2023-05-01T03:50:21.561Z,73.74
2023-05-01T03:53:29.867Z,85.80
2023-05-01T03:56:38.936Z,91.67
2023-05-01T03:59:48.380Z,93.94
2023-05-01T04:02:57.216Z,93.13
2023-05-01T04:06:04.313Z,95.76
2023-05-01T04:09:11.416Z,100.17
2023-05-01T04:12:17.412Z,106.67
2023-05-01T04:15:26.729Z,104.49
2023-05-01T04:18:32.761Z,101.88
2023-05-01T04:21:39.819Z,97.24
2023-05-01T04:24:46.007Z,97.51
2023-05-01T04:27:53.285Z,100.56
2023-05-01T04:31:02.160Z,98.85
2023-05-01T04:34:09.107Z,101.69
2023-05-01T04:37:18.225Z,98.81
2023-05-01T04:40:25.435Z,98.54
2023-05-01T04:43:31.521Z,90.74
2023-05-01T04:46:42.083Z,87.32
2023-05-01T04:49:51.008Z,86.91
2023-05-01T04:52:57.925Z,84.77
2023-05-01T04:56:04.251Z,76.17
2023-05-01T04:59:12.728Z,76.49
2023-05-01T05:02:21.788Z,70.11
2023-05-01T05:05:28.723Z,66.44
2023-05-01T05:08:34.990Z,60.28
2023-05-01T05:11:48.667Z,61.72
2023-05-01T05:15:02.240Z,65.08
2023-05-01T05:18:12.965Z,63.75
2023-05-01T05:21:19.637Z,67.26
2023-05-01T05:24:31.180Z,64.39
2023-05-01T05:27:38.533Z,71.05
2023-05-01T05:30:45.302Z,76.22
2023-05-01T05:34:11.786Z,76.11
2023-05-01T05:37:18.784Z,80.81
2023-05-01T05:40:30.470Z,84.19
2023-05-01T05:43:37.824Z,83.83
2023-05-01T05:46:46.164Z,89.08
2023-05-01T05:50:01.100Z,92.18
2023-05-01T05:53:07.119Z,92.45
2023-05-01T05:56:14.260Z,92.85
2023-05-01T05:59:21.795Z,96.98
2023-05-01T06:02:28.753Z,92.03
2023-05-01T06:05:37.820Z,102.50
2023-05-01T06:08:46.545Z,98.69
2023-05-01T06:11:52.710Z,92.93
2023-05-01T06:14:59.557Z,90.87
2023-05-01T06:18:06.427Z,99.63
2023-05-01T06:21:16.826Z,126.55
2023-05-01T06:24:27.815Z,121.18
2023-05-01T06:27:37.587Z,149.57
2023-05-01T06:30:43.969Z,94.88
2023-05-01T06:33:51.671Z,98.52
2023-05-01T06:37:39.077Z,106.52
2023-05-01T06:40:48.368Z,100.16
2023-05-01T06:43:54.502Z,91.84
2023-05-01T06:47:02.157Z,87.97
2023-05-01T06:50:10.443Z,92.11
2023-05-01T06:53:20.302Z,91.79
2023-05-01T06:56:26.515Z,82.22
2023-05-01T06:59:34.531Z,80.69
2023-05-01T07:02:41.388Z,72.91
2023-05-01T07:05:48.661Z,73.13
2023-05-01T07:08:57.423Z,138.94
2023-05-01T07:12:04.260Z,88.03
2023-05-01T07:15:18.348Z,70.48
2023-05-01T07:18:29.737Z,69.47
2023-05-01T07:21:35.756Z,70.41
2023-05-01T07:24:51.565Z,71.34
2023-05-01T07:27:58.681Z,60.55
2023-05-01T07:31:05.522Z,54.76
2023-05-01T07:34:11.882Z,49.07
2023-05-01T07:37:19.103Z,47.66
2023-05-01T07:40:31.940Z,65.23
2023-05-01T07:43:40.986Z,43.37
2023-05-01T07:46:47.544Z,37.62
2023-05-01T07:49:54.512Z,39.02
2023-05-01T07:53:00.741Z,35.95
2023-05-01T07:56:13.207Z,30.72
2023-05-01T07:59:19.598Z,33.20
2023-05-01T08:02:29.789Z,27.71
2023-05-01T08:05:35.961Z,28.13
2023-05-01T08:08:42.934Z,30.05
2023-05-01T08:11:52.481Z,26.09
2023-05-01T08:14:59.566Z,31.46
2023-05-01T08:18:05.819Z,37.10
2023-05-01T08:21:13.906Z,46.57
2023-05-01T08:24:19.957Z,39.63
2023-05-01T08:27:29.838Z,37.59
2023-05-01T08:30:38.090Z,50.04
2023-05-01T08:33:45.080Z,33.24
2023-05-01T08:36:50.978Z,42.06
2023-05-01T08:40:08.588Z,39.20
2023-05-01T08:43:17.952Z,34.45
2023-05-01T08:46:41.590Z,66.96
2023-05-01T08:49:51.126Z,60.65
2023-05-01T08:53:02.476Z,30.58
2023-05-01T08:56:16.391Z,29.47
2023-05-01T08:59:30.548Z,29.14
2023-05-01T09:02:41.322Z,29.17
2023-05-01T09:05:53.356Z,24.86
2023-05-01T09:08:59.345Z,27.80
2023-05-01T09:12:21.484Z,27.60
2023-05-01T09:15:31.849Z,25.09
2023-05-01T09:18:40.443Z,26.57
2023-05-01T09:21:46.788Z,31.00
2023-05-01T09:24:54.919Z,46.94
2023-05-01T09:28:08.522Z,31.27
2023-05-01T09:31:29.382Z,31.69
2023-05-01T09:34:35.420Z,34.35
2023-05-01T09:37:47.547Z,27.65
2023-05-01T09:40:56.955Z,25.32
2023-05-01T09:44:04.524Z,33.48
2023-05-01T09:47:16.609Z,44.60
2023-05-01T09:50:36.790Z,37.29
2023-05-01T09:53:44.122Z,29.71
2023-05-01T09:56:52.826Z,29.57
2023-05-01T10:00:10.528Z,29.42
2023-05-01T10:03:20.077Z,28.66
2023-05-01T10:06:32.290Z,33.08
2023-05-01T10:09:39.019Z,34.85
2023-05-01T10:12:45.043Z,29.00
2023-05-01T10:15:52.444Z,29.21
2023-05-01T10:19:04.675Z,34.55
2023-05-01T10:22:12.676Z,39.29
2023-05-01T10:25:21.102Z,33.62
2023-05-01T10:28:28.970Z,35.39
2023-05-01T10:31:36.215Z,47.91
2023-05-01T10:34:55.163Z,34.90
2023-05-01T10:38:06.382Z,40.46
2023-05-01T10:41:14.267Z,35.36
2023-05-01T10:44:25.038Z,31.87
2023-05-01T10:47:50.538Z,33.82
2023-05-01T10:51:20.704Z,34.73
2023-05-01T10:54:31.011Z,33.85
2023-05-01T10:57:47.488Z,49.25
2023-05-01T11:01:35.886Z,35.71
2023-05-01T11:04:57.338Z,31.93
2023-05-01T11:08:37.884Z,32.33
2023-05-01T11:11:53.905Z,33.20
2023-05-01T11:15:10.123Z,40.53
2023-05-01T11:18:16.304Z,36.57
2023-05-01T11:21:34.374Z,33.68
2023-05-01T11:24:43.676Z,34.51
2023-05-01T11:27:53.258Z,31.86
2023-05-01T11:30:59.527Z,30.66
2023-05-01T11:34:07.715Z,28.45
2023-05-01T11:37:13.914Z,30.95
2023-05-01T11:40:29.713Z,30.27
2023-05-01T11:43:36.047Z,29.78
2023-05-01T11:46:42.987Z,32.05
2023-05-01T11:49:56.087Z,31.61
2023-05-01T11:53:03.244Z,31.61
2023-05-01T11:56:27.038Z,30.83
2023-05-01T11:59:34.711Z,30.18
2023-05-01T12:02:41.269Z,37.72
2023-05-01T12:05:48.995Z,33.22
2023-05-01T12:08:55.717Z,38.23
2023-05-01T12:12:06.045Z,32.83
2023-05-01T12:15:14.419Z,35.24
2023-05-01T12:18:22.918Z,32.35
2023-05-01T12:21:36.987Z,30.85
2023-05-01T12:24:54.495Z,31.41
2023-05-01T12:28:20.172Z,31.45
2023-05-01T12:31:28.012Z,32.26
2023-05-01T12:34:34.745Z,32.89
2023-05-01T12:37:41.923Z,33.17
2023-05-01T12:40:57.043Z,35.99
2023-05-01T12:44:18.133Z,34.84
2023-05-01T12:47:26.614Z,31.86
2023-05-01T12:50:40.009Z,41.30
2023-05-01T12:53:49.463Z,45.59
2023-05-01T12:56:58.748Z,34.45
2023-05-01T13:00:09.908Z,31.20
2023-05-01T13:03:19.063Z,30.33
2023-05-01T13:06:25.491Z,31.21
2023-05-01T13:09:33.901Z,32.41
2023-05-01T13:12:48.505Z,31.52
2023-05-01T13:16:09.407Z,34.21
2023-05-01T13:19:17.011Z,30.41
2023-05-01T13:22:33.431Z,31.01
2023-05-01T13:25:39.510Z,29.96
2023-05-01T13:28:48.699Z,30.62
2023-05-01T13:32:06.738Z,35.31
2023-05-01T13:35:13.991Z,33.15
2023-05-01T13:38:23.731Z,33.44
2023-05-01T13:41:31.585Z,29.72
2023-05-01T13:44:49.294Z,29.75
2023-05-01T13:47:58.813Z,29.42
2023-05-01T13:51:05.041Z,27.93
2023-05-01T13:54:12.874Z,28.69
2023-05-01T13:57:26.721Z,28.25
2023-05-01T14:00:33.535Z,29.30
2023-05-01T14:03:46.645Z,28.65
2023-05-01T14:06:53.844Z,28.73
2023-05-01T14:10:05.204Z,31.26
2023-05-01T14:13:12.237Z,29.59
2023-05-01T14:16:28.072Z,30.86
2023-05-01T14:19:37.798Z,33.47
2023-05-01T14:22:51.969Z,36.20
2023-05-01T14:25:58.762Z,44.49
2023-05-01T14:29:04.781Z,40.48
2023-05-01T14:32:13.604Z,30.59
2023-05-01T14:35:25.127Z,29.33
2023-05-01T14:38:39.417Z,38.35
2023-05-01T14:41:46.713Z,34.80
2023-05-01T14:44:58.198Z,38.50
2023-05-01T14:48:05.585Z,33.43
2023-05-01T14:51:22.926Z,31.93
2023-05-01T14:54:31.084Z,31.40
2023-05-01T14:57:38.018Z,30.99
2023-05-01T15:00:44.240Z,30.58
2023-05-01T15:03:51.270Z,29.20
2023-05-01T15:06:59.889Z,29.89
2023-05-01T15:10:12.277Z,29.52
2023-05-01T15:13:18.281Z,29.53
2023-05-01T15:16:25.245Z,29.09
2023-05-01T15:19:31.240Z,32.26
2023-05-01T15:22:41.142Z,31.73
2023-05-01T15:25:48.205Z,33.71
2023-05-01T15:28:55.237Z,31.84
2023-05-01T15:32:12.080Z,33.24
2023-05-01T15:35:21.748Z,30.96
2023-05-01T15:38:30.528Z,33.16
2023-05-01T15:41:37.604Z,30.97
2023-05-01T15:44:43.559Z,28.90
2023-05-01T15:47:50.611Z,33.52
2023-05-01T15:50:56.630Z,31.99
2023-05-01T15:54:06.611Z,33.71
2023-05-01T15:57:13.312Z,34.00
2023-05-01T16:00:28.837Z,34.49
2023-05-01T16:03:39.172Z,29.80
2023-05-01T16:06:46.240Z,30.35
2023-05-01T16:09:56.163Z,29.30
2023-05-01T16:13:03.184Z,28.51
2023-05-01T16:16:14.699Z,29.72
2023-05-01T16:19:28.880Z,29.90
2023-05-01T16:22:36.389Z,28.82
2023-05-01T16:25:51.687Z,27.28
2023-05-01T16:29:08.247Z,28.06
2023-05-01T16:32:15.409Z,30.40
2023-05-01T16:35:21.830Z,32.46
2023-05-01T16:38:30.244Z,30.58
2023-05-01T16:41:48.258Z,35.06
2023-05-01T16:44:56.896Z,33.22
2023-05-01T16:48:03.143Z,34.36
2023-05-01T16:51:14.878Z,32.15
2023-05-01T16:54:32.381Z,29.82
2023-05-01T16:57:44.132Z,31.92
2023-05-01T17:00:50.702Z,30.06
2023-05-01T17:04:23.865Z,33.43
2023-05-01T17:07:31.474Z,33.58
2023-05-01T17:10:38.707Z,32.61
2023-05-01T17:13:47.829Z,33.12
2023-05-01T17:16:58.965Z,34.20
2023-05-01T17:20:11.752Z,34.74
2023-05-01T17:23:19.144Z,33.38
2023-05-01T17:26:28.643Z,35.46
2023-05-01T17:29:39.512Z,36.11
2023-05-01T17:32:46.642Z,36.64
2023-05-01T17:35:55.637Z,37.61
2023-05-01T17:39:01.864Z,37.49
2023-05-01T17:42:15.756Z,40.79
2023-05-01T17:45:31.918Z,41.63
2023-05-01T17:48:38.716Z,42.06
2023-05-01T17:51:46.858Z,46.68
2023-05-01T17:54:53.796Z,49.35
2023-05-01T17:58:00.160Z,50.70
2023-05-01T18:01:10.569Z,51.09
2023-05-01T18:04:23.608Z,48.84
2023-05-01T18:07:30.905Z,49.39
2023-05-01T18:10:42.132Z,48.49
2023-05-01T18:13:49.176Z,49.70
2023-05-01T18:16:58.317Z,46.52
2023-05-01T18:20:05.690Z,45.73
2023-05-01T18:23:11.696Z,45.38
2023-05-01T18:26:19.535Z,43.56
2023-05-01T18:29:25.685Z,44.09
2023-05-01T18:32:46.936Z,43.94
2023-05-01T18:35:54.523Z,41.83
2023-05-01T18:39:02.252Z,40.96
2023-05-01T18:42:13.768Z,41.84
2023-05-01T18:45:20.775Z,38.10
2023-05-01T18:48:29.840Z,42.95
2023-05-01T18:51:37.153Z,43.86
2023-05-01T18:54:54.825Z,53.68
2023-05-01T18:58:02.343Z,77.60
2023-05-01T19:01:08.422Z,65.64
2023-05-01T19:04:20.393Z,58.44
2023-05-01T19:07:29.561Z,59.47
2023-05-01T19:10:37.471Z,64.22
2023-05-01T19:13:43.598Z,63.22
2023-05-01T19:16:50.601Z,64.53
2023-05-01T19:19:59.536Z,74.77
2023-05-01T19:23:06.776Z,73.02
2023-05-01T19:26:14.124Z,64.71
2023-05-01T19:29:31.275Z,54.55
2023-05-01T19:32:37.429Z,48.80
2023-05-01T19:35:47.203Z,48.44
2023-05-01T19:38:56.608Z,46.79
2023-05-01T19:42:03.723Z,47.46
2023-05-01T19:45:23.919Z,51.39
2023-05-01T19:48:31.241Z,51.62
2023-05-01T19:51:44.372Z,53.11
2023-05-01T19:54:51.319Z,54.49
2023-05-01T19:57:58.138Z,55.46
2023-05-01T20:01:08.687Z,56.01
2023-05-01T20:04:15.117Z,58.12
2023-05-01T20:07:24.725Z,60.29
2023-05-01T20:10:37.179Z,61.69
2023-05-01T20:13:45.694Z,68.92
2023-05-01T20:16:53.434Z,74.42
2023-05-01T20:20:00.679Z,108.31
2023-05-01T20:23:17.868Z,110.81
2023-05-01T20:26:26.528Z,123.36
2023-05-01T20:29:32.752Z,121.99
2023-05-01T20:32:42.631Z,135.26
2023-05-01T20:35:48.779Z,141.76
2023-05-01T20:38:58.251Z,126.50
2023-05-01T20:42:05.546Z,141.03
2023-05-01T20:45:16.127Z,111.80
2023-05-01T20:48:22.266Z,85.49
2023-05-01T20:51:32.385Z,89.15
2023-05-01T20:54:43.336Z,104.57
2023-05-01T20:57:50.432Z,111.47
2023-05-01T21:00:58.281Z,108.82
2023-05-01T21:04:07.230Z,127.81
2023-05-01T21:07:13.457Z,136.15
2023-05-01T21:10:22.948Z,134.48
2023-05-01T21:13:30.875Z,131.53
2023-05-01T21:16:37.956Z,128.55
2023-05-01T21:19:48.547Z,149.42
2023-05-01T21:22:55.454Z,157.09
2023-05-01T21:26:04.931Z,169.76
2023-05-01T21:29:12.547Z,224.02
2023-05-01T21:32:20.487Z,308.21
2023-05-01T21:35:30.136Z,763.53
2023-05-01T21:38:38.849Z,944.62
2023-05-01T21:41:55.079Z,619.05
2023-05-01T21:45:05.461Z,356.53
2023-05-01T21:48:16.800Z,268.73
2023-05-01T21:51:29.199Z,273.67
2023-05-01T21:54:37.047Z,247.18
2023-05-01T21:57:45.750Z,212.17
2023-05-01T22:00:53.580Z,185.24
2023-05-01T22:04:00.478Z,198.42
2023-05-01T22:07:09.297Z,205.98
2023-05-01T22:10:23.336Z,191.58
2023-05-01T22:13:36.207Z,211.44
2023-05-01T22:16:42.221Z,212.36
2023-05-01T22:19:49.047Z,210.99
2023-05-01T22:22:55.170Z,187.56
2023-05-01T22:26:02.858Z,170.67
2023-05-01T22:29:11.479Z,169.32
2023-05-01T22:32:18.577Z,154.30
2023-05-01T22:35:24.531Z,154.15
2023-05-01T22:38:31.686Z,161.01
2023-05-01T22:41:37.550Z,154.53
2023-05-01T22:44:50.176Z,153.95
2023-05-01T22:47:56.670Z,150.86
2023-05-01T22:51:03.726Z,163.78
2023-05-01T22:54:09.650Z,162.57
2023-05-01T22:57:16.782Z,151.39
2023-05-01T23:00:25.664Z,147.45
2023-05-01T23:03:35.733Z,146.14
2023-05-01T23:06:43.533Z,140.49
2023-05-01T23:09:50.337Z,129.68
2023-05-01T23:12:56.246Z,127.86
2023-05-01T23:16:11.513Z,130.10
2023-05-01T23:19:25.975Z,129.64
2023-05-01T23:22:38.425Z,124.30
2023-05-01T23:25:53.428Z,125.92
2023-05-01T23:29:00.596Z,131.56
2023-05-01T23:32:14.121Z,132.98
2023-05-01T23:35:26.690Z,130.23
2023-05-01T23:38:33.537Z,122.00
2023-05-01T23:41:54.342Z,123.89
2023-05-01T23:45:01.132Z,121.06
2023-05-01T23:48:16.153Z,126.95
2023-05-01T23:51:22.342Z,130.06
2023-05-01T23:54:29.433Z,130.69
2023-05-01T23:57:35.493Z,132.44
